Terminal Aerodrome Forecast
Issued by NWS

Current Version | Previous Version | Text Only | Print | Product List | Glossary On
Versions: 1 2 3 4 5 6 7 8 9 10 11 12 13 14 15 16 17 18 19
000
FTUS42 KTAE 251700
TAFECP
TAF
KECP 251720Z 2518/2618 21010G15KT P6SM SCT050 SCT100
     FM260100 22010KT P6SM BKN050
     FM260900 27010KT P6SM OVC050=

USA.gov is the U.S. government's official web portal to all federal, state and local government web resources and services.